Evansville Dress Regional Ai, Indiana
Current Conditions -  °F | °C
As of 5:54 PM on Monday 24 Nov 2014 (Local Time) from KEVV Reporting Station
Overcast Overcast  
Wind Chill: 46°   Ceiling: 6000
Heat Index: 46°   Visibility: 10mi
Dew Point: 36°   Wind: 3mph
Humidity: 68%   Direction: 250°WSW
Pressure: 29.89"   Gusts: NA
Location:  38.0153°N, 87.5343°W
Report Text: KEVV 242354Z 25003KT 10SM OVC060 08/02 A2989 RMK AO2 SLP123 T00780022 10089 20072 51038
Loading
Personal Weather Stations






























Interactive Weather Map New forecast layout! Learn more

10-Day Weather Forecast

Advertisements
Track Severe Weather on mobile